createdAt,value
2023-07-03T00:01:25.254Z,17.80
2023-07-03T00:03:53.415Z,17.70
2023-07-03T00:06:20.469Z,17.60
2023-07-03T00:08:47.348Z,17.50
2023-07-03T00:11:14.228Z,17.40
2023-07-03T00:13:41.192Z,17.20
2023-07-03T00:16:11.296Z,17.10
2023-07-03T00:18:38.203Z,17.10
2023-07-03T00:21:06.121Z,17.00
2023-07-03T00:23:33.002Z,16.90
2023-07-03T00:25:59.904Z,16.80
2023-07-03T00:28:26.978Z,16.70
2023-07-03T00:30:53.864Z,16.70
2023-07-03T00:33:23.788Z,16.60
2023-07-03T00:35:50.802Z,16.60
2023-07-03T00:38:17.763Z,16.50
2023-07-03T00:40:44.715Z,16.40
2023-07-03T00:43:11.590Z,16.40
2023-07-03T00:45:38.521Z,16.40
2023-07-03T00:48:05.932Z,16.30
2023-07-03T00:50:35.975Z,16.30
2023-07-03T00:53:06.136Z,16.20
2023-07-03T00:55:33.177Z,16.20
2023-07-03T00:58:00.178Z,16.20
2023-07-03T01:00:38.423Z,16.10
2023-07-03T01:03:42.141Z,16.10
2023-07-03T01:06:19.804Z,16.10
2023-07-03T01:08:51.349Z,16.00
2023-07-03T01:11:20.432Z,16.00
2023-07-03T01:13:49.928Z,15.90
2023-07-03T01:16:17.897Z,15.90
2023-07-03T01:18:48.430Z,15.80
2023-07-03T01:21:29.630Z,15.80
2023-07-03T01:24:05.516Z,15.70
2023-07-03T01:26:33.702Z,15.70
2023-07-03T01:29:02.913Z,15.60
2023-07-03T01:31:32.184Z,15.60
2023-07-03T01:34:01.215Z,15.70
2023-07-03T01:36:30.614Z,15.70
2023-07-03T01:39:00.135Z,15.70
2023-07-03T01:41:29.127Z,15.70
2023-07-03T01:43:56.291Z,15.60
2023-07-03T01:46:23.945Z,15.60
2023-07-03T01:48:50.855Z,15.60
2023-07-03T01:51:33.966Z,15.60
2023-07-03T01:54:17.293Z,15.60
2023-07-03T01:56:47.146Z,15.60
2023-07-03T01:59:19.058Z,15.50
2023-07-03T02:02:00.237Z,15.50
2023-07-03T02:04:30.796Z,15.50
2023-07-03T02:06:59.444Z,15.40
2023-07-03T02:09:26.669Z,15.30
2023-07-03T02:11:54.317Z,15.30
2023-07-03T02:14:21.273Z,15.30
2023-07-03T02:16:48.769Z,15.30
2023-07-03T02:19:17.010Z,15.30
2023-07-03T02:21:47.434Z,15.30
2023-07-03T02:24:14.650Z,15.20
2023-07-03T02:26:46.453Z,15.10
2023-07-03T02:29:13.373Z,15.20
2023-07-03T02:31:40.243Z,15.10
2023-07-03T02:34:07.224Z,15.10
2023-07-03T02:36:38.263Z,15.00
2023-07-03T02:39:06.693Z,15.10
2023-07-03T02:41:34.558Z,15.00
2023-07-03T02:44:01.607Z,15.00
2023-07-03T02:46:28.563Z,15.00
2023-07-03T02:48:55.796Z,15.00
2023-07-03T02:51:22.794Z,15.00
2023-07-03T02:53:49.673Z,14.90
2023-07-03T02:56:16.671Z,14.90
2023-07-03T02:58:43.540Z,15.00
2023-07-03T03:01:10.413Z,15.10
2023-07-03T03:03:37.441Z,15.10
2023-07-03T03:06:04.384Z,15.10
2023-07-03T03:08:31.381Z,15.20
2023-07-03T03:10:58.496Z,15.20
2023-07-03T03:13:25.619Z,15.30
2023-07-03T03:15:52.809Z,15.30
2023-07-03T03:18:20.174Z,15.30
2023-07-03T03:20:47.151Z,15.30
2023-07-03T03:23:14.989Z,15.30
2023-07-03T03:25:42.974Z,15.30
2023-07-03T03:28:10.547Z,15.30
2023-07-03T03:30:37.439Z,15.30
2023-07-03T03:33:05.224Z,15.30
2023-07-03T03:35:35.397Z,15.30
2023-07-03T03:38:08.314Z,15.30
2023-07-03T03:40:35.281Z,15.30
2023-07-03T03:43:02.230Z,15.30
2023-07-03T03:45:29.142Z,15.30
2023-07-03T03:47:56.141Z,15.40
2023-07-03T03:50:23.284Z,15.40
2023-07-03T03:52:53.210Z,15.40
2023-07-03T03:55:20.273Z,15.40
2023-07-03T03:57:47.140Z,15.50
2023-07-03T04:00:17.564Z,15.50
2023-07-03T04:02:44.705Z,15.50
2023-07-03T04:05:12.885Z,15.50
2023-07-03T04:07:40.401Z,15.50
2023-07-03T04:10:08.235Z,15.50
2023-07-03T04:12:35.113Z,15.60
2023-07-03T04:15:03.062Z,15.60
2023-07-03T04:17:30.080Z,15.60
2023-07-03T04:19:56.996Z,15.60
2023-07-03T04:22:23.976Z,15.60
2023-07-03T04:24:50.824Z,15.70
2023-07-03T04:27:17.665Z,15.70
2023-07-03T04:29:44.587Z,15.80
2023-07-03T04:32:11.626Z,15.90
2023-07-03T04:34:38.544Z,16.00
2023-07-03T04:37:05.712Z,16.10
2023-07-03T04:39:33.125Z,16.20
2023-07-03T04:42:01.436Z,16.20
2023-07-03T04:44:29.179Z,16.30
2023-07-03T04:46:59.348Z,16.40
2023-07-03T04:49:27.684Z,16.50
2023-07-03T04:51:56.043Z,16.60
2023-07-03T04:54:23.259Z,16.60
2023-07-03T04:56:50.318Z,16.70
2023-07-03T04:59:17.247Z,16.70
2023-07-03T05:01:44.294Z,16.80
2023-07-03T05:04:12.156Z,16.90
2023-07-03T05:06:39.977Z,17.00
2023-07-03T05:09:09.300Z,17.10
2023-07-03T05:11:36.338Z,17.10
2023-07-03T05:14:03.194Z,17.00
2023-07-03T05:16:30.250Z,17.10
2023-07-03T05:18:57.295Z,17.10
2023-07-03T05:21:24.156Z,17.10
2023-07-03T05:23:51.072Z,17.20
2023-07-03T05:26:18.110Z,17.20
2023-07-03T05:28:44.941Z,17.30
2023-07-03T05:31:12.113Z,17.30
2023-07-03T05:33:39.009Z,17.40
2023-07-03T05:36:07.054Z,17.50
2023-07-03T05:38:34.670Z,17.60
2023-07-03T05:41:01.932Z,17.80
2023-07-03T05:43:30.441Z,17.90
2023-07-03T05:45:57.405Z,18.10
2023-07-03T05:48:25.413Z,18.30
2023-07-03T05:50:52.410Z,18.40
2023-07-03T05:53:20.062Z,18.70
2023-07-03T05:55:58.082Z,18.90
2023-07-03T05:58:27.092Z,18.90
2023-07-03T06:00:54.404Z,19.10
2023-07-03T06:03:21.684Z,19.20
2023-07-03T06:05:49.562Z,19.50
2023-07-03T06:08:16.730Z,19.70
2023-07-03T06:10:43.869Z,19.80
2023-07-03T06:13:10.914Z,20.00
2023-07-03T06:15:37.875Z,20.20
2023-07-03T06:18:05.232Z,20.40
2023-07-03T06:20:32.640Z,20.40
2023-07-03T06:22:59.583Z,20.60
2023-07-03T06:25:27.261Z,20.80
2023-07-03T06:27:54.148Z,20.80
2023-07-03T06:30:21.033Z,20.90
2023-07-03T06:32:48.031Z,20.90
2023-07-03T06:35:16.104Z,21.00
2023-07-03T06:37:43.120Z,21.00
2023-07-03T06:40:11.359Z,21.10
2023-07-03T06:42:39.374Z,21.10
2023-07-03T06:45:06.926Z,21.00
2023-07-03T06:47:33.954Z,20.90
2023-07-03T06:50:00.822Z,20.90
2023-07-03T06:52:27.796Z,21.00
2023-07-03T06:54:54.697Z,21.30
2023-07-03T06:57:21.696Z,21.80
2023-07-03T06:59:51.970Z,22.00
2023-07-03T07:02:18.954Z,22.20
2023-07-03T07:04:46.796Z,22.20
2023-07-03T07:07:13.738Z,22.10
2023-07-03T07:09:40.689Z,21.80
2023-07-03T07:12:07.910Z,21.70
2023-07-03T07:14:34.873Z,21.60
2023-07-03T07:17:01.894Z,21.70
2023-07-03T07:19:28.872Z,21.40
2023-07-03T07:21:55.972Z,21.60
2023-07-03T07:24:25.485Z,21.70
2023-07-03T07:26:59.809Z,21.80
2023-07-03T07:29:26.822Z,21.90
2023-07-03T07:31:57.877Z,22.00
2023-07-03T07:34:25.426Z,22.20
2023-07-03T07:36:52.951Z,22.40
2023-07-03T07:39:21.332Z,22.50
2023-07-03T07:41:49.259Z,22.30
2023-07-03T07:44:16.187Z,22.20
2023-07-03T07:46:43.266Z,22.10
2023-07-03T07:49:11.118Z,22.10
2023-07-03T07:51:38.054Z,22.20
2023-07-03T07:54:05.176Z,22.00
2023-07-03T07:56:34.359Z,21.80
2023-07-03T07:59:01.606Z,21.70
2023-07-03T08:01:28.663Z,21.80
2023-07-03T08:03:55.695Z,21.70
2023-07-03T08:06:22.733Z,21.80
2023-07-03T08:08:51.202Z,22.10
2023-07-03T08:11:18.419Z,22.30
2023-07-03T08:13:45.286Z,22.40
2023-07-03T08:16:12.890Z,22.60
2023-07-03T08:18:39.960Z,22.90
2023-07-03T08:21:06.974Z,23.20
2023-07-03T08:23:33.907Z,23.50
2023-07-03T08:26:02.350Z,23.60
2023-07-03T08:28:30.754Z,23.70
2023-07-03T08:31:01.813Z,24.00
2023-07-03T08:33:28.938Z,24.20
2023-07-03T08:38:25.748Z,23.90
2023-07-03T08:41:00.924Z,23.90
2023-07-03T08:43:38.940Z,23.80
2023-07-03T08:46:11.114Z,23.50
2023-07-03T08:48:39.706Z,23.20
2023-07-03T08:51:10.427Z,23.10
2023-07-03T08:53:40.818Z,22.90
2023-07-03T08:56:21.723Z,22.80
2023-07-03T08:58:53.576Z,22.70
2023-07-03T09:01:42.985Z,22.30
2023-07-03T09:04:37.921Z,22.30
2023-07-03T09:07:11.094Z,22.30
2023-07-03T09:09:54.061Z,22.30
2023-07-03T09:12:45.636Z,22.40
2023-07-03T09:15:31.471Z,22.30
2023-07-03T09:18:00.995Z,22.40
2023-07-03T09:20:30.832Z,22.50
2023-07-03T09:23:18.913Z,22.90
2023-07-03T09:25:54.346Z,23.30
2023-07-03T09:28:21.916Z,23.40
2023-07-03T09:30:49.173Z,23.40
2023-07-03T09:33:16.512Z,23.50
2023-07-03T09:35:43.937Z,23.70
2023-07-03T09:38:15.325Z,23.90
2023-07-03T09:40:48.682Z,23.80
2023-07-03T09:43:27.074Z,24.10
2023-07-03T09:46:11.701Z,24.00
2023-07-03T09:48:38.691Z,24.00
2023-07-03T09:51:38.847Z,24.10
2023-07-03T09:54:20.583Z,24.30
2023-07-03T09:56:50.605Z,24.30
2023-07-03T09:59:20.925Z,24.00
2023-07-03T10:07:06.472Z,24.40
2023-07-03T10:12:15.688Z,24.00
2023-07-03T10:14:48.656Z,24.00
2023-07-03T10:17:17.678Z,23.80
2023-07-03T10:19:50.897Z,23.70
2023-07-03T10:22:19.394Z,23.60
2023-07-03T10:24:48.342Z,23.50
2023-07-03T10:27:18.254Z,23.60
2023-07-03T10:29:49.067Z,23.90
2023-07-03T10:32:19.112Z,24.10
2023-07-03T10:35:13.103Z,24.50
2023-07-03T10:38:04.571Z,24.50
2023-07-03T10:40:39.904Z,24.30
2023-07-03T10:43:08.778Z,24.10
2023-07-03T10:45:38.378Z,24.10
2023-07-03T10:48:21.175Z,24.20
2023-07-03T10:51:04.291Z,24.30
2023-07-03T10:53:48.980Z,24.30
2023-07-03T10:56:45.389Z,23.70
2023-07-03T10:59:18.108Z,23.50
2023-07-03T11:02:18.434Z,23.60
2023-07-03T11:05:04.301Z,23.80
2023-07-03T11:08:08.360Z,23.70
2023-07-03T11:10:42.645Z,23.40
2023-07-03T11:13:53.149Z,23.20
2023-07-03T11:16:26.442Z,23.10
2023-07-03T11:24:25.865Z,23.90
2023-07-03T11:29:36.090Z,24.40
2023-07-03T11:32:06.870Z,24.20
2023-07-03T11:40:40.279Z,25.20
2023-07-03T11:45:40.149Z,25.60
2023-07-03T11:48:39.653Z,25.30
2023-07-03T11:51:16.182Z,25.10
2023-07-03T11:54:30.263Z,25.00
2023-07-03T11:57:04.448Z,25.00
2023-07-03T11:59:37.408Z,24.90
2023-07-03T12:02:13.044Z,24.90
2023-07-03T12:04:49.163Z,24.80
2023-07-03T12:07:20.175Z,25.10
2023-07-03T12:09:48.655Z,25.60
2023-07-03T12:12:25.748Z,25.40
2023-07-03T12:15:03.245Z,25.60
2023-07-03T12:17:34.150Z,26.30
2023-07-03T12:20:19.067Z,26.40
2023-07-03T12:22:48.481Z,26.00
2023-07-03T12:25:23.150Z,26.00
2023-07-03T12:27:51.191Z,26.00
2023-07-03T12:30:26.269Z,26.60
2023-07-03T12:32:54.857Z,27.00
2023-07-03T12:35:35.829Z,27.30
2023-07-03T12:38:10.953Z,27.40
2023-07-03T12:40:45.586Z,27.10
2023-07-03T12:43:18.670Z,26.40
2023-07-03T12:45:52.996Z,26.20
2023-07-03T12:48:24.681Z,25.90
2023-07-03T12:50:57.424Z,25.90
2023-07-03T12:53:30.501Z,25.90
2023-07-03T12:56:04.086Z,26.00
2023-07-03T12:58:31.333Z,25.90
2023-07-03T13:01:09.206Z,25.80
2023-07-03T13:03:43.572Z,25.90
2023-07-03T13:06:17.116Z,25.90
2023-07-03T13:08:48.697Z,25.80
2023-07-03T13:11:15.578Z,26.10
2023-07-03T13:13:42.687Z,26.00
2023-07-03T13:16:17.610Z,26.00
2023-07-03T13:19:01.270Z,26.10
2023-07-03T13:21:28.363Z,26.60
2023-07-03T13:23:55.224Z,26.60
2023-07-03T13:26:25.132Z,26.80
2023-07-03T13:28:59.900Z,26.90
2023-07-03T13:31:46.430Z,26.60
2023-07-03T13:34:23.729Z,26.10
2023-07-03T13:37:04.026Z,26.00
2023-07-03T13:39:34.013Z,26.20
2023-07-03T13:42:01.232Z,26.00
2023-07-03T13:44:28.264Z,26.00
2023-07-03T13:46:56.086Z,26.10
2023-07-03T13:49:23.049Z,26.00
2023-07-03T13:51:51.463Z,25.50
2023-07-03T13:54:19.011Z,25.30
2023-07-03T13:56:46.667Z,24.90
2023-07-03T13:59:13.737Z,24.70
2023-07-03T14:01:43.706Z,24.70
2023-07-03T14:04:11.132Z,24.80
2023-07-03T14:06:38.314Z,24.80
2023-07-03T14:09:06.206Z,24.90
2023-07-03T14:11:33.375Z,25.10
2023-07-03T14:14:00.430Z,25.30
2023-07-03T14:16:29.215Z,25.50
2023-07-03T14:18:56.623Z,25.60
2023-07-03T14:21:25.538Z,25.70
2023-07-03T14:23:52.621Z,25.80
2023-07-03T14:26:19.766Z,25.90
2023-07-03T14:28:47.169Z,25.80
2023-07-03T14:31:16.354Z,26.00
2023-07-03T14:33:43.549Z,26.40
2023-07-03T14:36:11.539Z,26.30
2023-07-03T14:38:38.764Z,26.70
2023-07-03T14:41:06.292Z,26.60
2023-07-03T14:43:33.366Z,26.40
2023-07-03T14:46:01.821Z,26.40
2023-07-03T14:48:29.114Z,26.20
2023-07-03T14:50:56.048Z,26.20
2023-07-03T14:53:22.972Z,26.30
2023-07-03T14:55:56.385Z,26.00
2023-07-03T14:58:23.582Z,25.70
2023-07-03T15:00:50.534Z,25.70
2023-07-03T15:03:17.622Z,25.60
2023-07-03T15:05:44.786Z,25.80
2023-07-03T15:08:11.856Z,26.10
2023-07-03T15:10:39.004Z,26.10
2023-07-03T15:13:06.744Z,26.10
2023-07-03T15:15:34.116Z,26.00
2023-07-03T15:18:03.269Z,26.00
2023-07-03T15:20:30.791Z,25.90
2023-07-03T15:22:57.865Z,25.70
2023-07-03T15:25:24.839Z,25.40
2023-07-03T15:27:51.698Z,25.30
2023-07-03T15:30:18.740Z,25.30
2023-07-03T15:32:53.688Z,25.40
2023-07-03T15:35:21.771Z,25.40
2023-07-03T15:37:48.783Z,25.20
2023-07-03T15:40:15.776Z,25.20
2023-07-03T15:42:42.720Z,25.10
2023-07-03T15:45:09.936Z,25.10
2023-07-03T15:47:38.305Z,25.00
2023-07-03T15:50:06.620Z,24.90
2023-07-03T15:52:34.118Z,24.70
2023-07-03T15:55:01.393Z,24.60
2023-07-03T15:57:28.869Z,24.60
2023-07-03T15:59:55.893Z,24.50
2023-07-03T16:02:24.164Z,24.50
2023-07-03T16:04:51.382Z,24.50
2023-07-03T16:07:18.250Z,24.70
2023-07-03T16:09:45.419Z,24.70
2023-07-03T16:12:15.313Z,24.70
2023-07-03T16:14:43.212Z,24.80
2023-07-03T16:17:10.247Z,24.90
2023-07-03T16:19:37.186Z,25.00
2023-07-03T16:22:04.373Z,24.90
2023-07-03T16:24:31.243Z,24.80
2023-07-03T16:26:58.361Z,24.60
2023-07-03T16:29:25.348Z,24.50
2023-07-03T16:31:54.197Z,24.30
2023-07-03T16:34:21.333Z,24.30
2023-07-03T16:36:48.235Z,24.40
2023-07-03T16:39:15.138Z,24.50
2023-07-03T16:41:43.059Z,24.50
2023-07-03T16:44:10.010Z,24.30
2023-07-03T16:46:39.757Z,24.20
2023-07-03T16:49:07.367Z,24.10
2023-07-03T16:51:34.291Z,24.10
2023-07-03T16:54:01.723Z,23.90
2023-07-03T16:56:29.863Z,23.90
2023-07-03T16:59:01.047Z,23.80
2023-07-03T17:01:30.473Z,23.70
2023-07-03T17:03:58.329Z,23.60
2023-07-03T17:06:32.302Z,23.60
2023-07-03T17:09:00.975Z,23.60
2023-07-03T17:11:28.424Z,23.60
2023-07-03T17:13:55.781Z,23.60
2023-07-03T17:16:23.001Z,23.50
2023-07-03T17:18:50.012Z,23.50
2023-07-03T17:21:17.151Z,23.50
2023-07-03T17:23:44.498Z,23.40
2023-07-03T17:26:12.536Z,23.30
2023-07-03T17:28:40.035Z,23.30
2023-07-03T17:31:07.082Z,23.20
2023-07-03T17:33:35.148Z,23.20
2023-07-03T17:36:03.368Z,23.20
2023-07-03T17:38:31.236Z,23.10
2023-07-03T17:40:58.347Z,23.00
2023-07-03T17:43:25.408Z,22.90
2023-07-03T17:45:54.900Z,22.80
2023-07-03T17:48:22.986Z,22.80
2023-07-03T17:50:51.172Z,22.70
2023-07-03T17:53:22.065Z,22.70
2023-07-03T17:55:49.531Z,22.60
2023-07-03T17:58:17.351Z,22.60
2023-07-03T18:00:44.473Z,22.50
2023-07-03T18:03:11.610Z,22.40
2023-07-03T18:05:39.010Z,22.40
2023-07-03T18:08:06.004Z,22.30
2023-07-03T18:10:34.469Z,22.30
2023-07-03T18:13:01.953Z,22.30
2023-07-03T18:15:43.615Z,22.20
2023-07-03T18:18:15.769Z,22.20
2023-07-03T18:20:44.439Z,22.20
2023-07-03T18:23:11.446Z,22.10
2023-07-03T18:25:38.447Z,22.00
2023-07-03T18:28:05.500Z,22.00
2023-07-03T18:30:32.580Z,21.90
2023-07-03T18:32:59.808Z,21.90
2023-07-03T18:35:26.790Z,21.80
2023-07-03T18:37:53.915Z,21.80
2023-07-03T18:40:21.072Z,21.80
2023-07-03T18:42:48.012Z,21.70
2023-07-03T18:45:15.479Z,21.70
2023-07-03T18:47:42.738Z,21.60
2023-07-03T18:50:10.093Z,21.60
2023-07-03T18:52:40.233Z,21.60
2023-07-03T18:55:07.594Z,21.50
2023-07-03T18:57:34.683Z,21.50
2023-07-03T19:00:04.514Z,21.40
2023-07-03T19:02:31.695Z,21.40
2023-07-03T19:04:58.613Z,21.40
2023-07-03T19:07:25.567Z,21.40
2023-07-03T19:09:54.907Z,21.40
2023-07-03T19:12:26.614Z,21.40
2023-07-03T19:14:53.824Z,21.40
2023-07-03T19:17:20.819Z,21.30
2023-07-03T19:19:48.010Z,21.30
2023-07-03T19:22:15.037Z,21.20
2023-07-03T19:24:42.088Z,21.20
2023-07-03T19:27:10.234Z,21.20
2023-07-03T19:29:39.312Z,21.10
2023-07-03T19:32:07.541Z,21.20
2023-07-03T19:34:36.554Z,21.10
2023-07-03T19:37:03.674Z,21.00
2023-07-03T19:39:30.730Z,21.00
2023-07-03T19:41:57.634Z,20.90
2023-07-03T19:44:24.739Z,20.80
2023-07-03T19:46:51.690Z,20.80
2023-07-03T19:49:18.595Z,20.70
2023-07-03T19:51:45.466Z,20.60
2023-07-03T19:54:12.603Z,20.50
2023-07-03T19:56:39.745Z,20.50
2023-07-03T19:59:07.421Z,20.40
2023-07-03T20:01:34.419Z,20.30
2023-07-03T20:04:01.479Z,20.30
2023-07-03T20:06:28.759Z,20.30
2023-07-03T20:08:55.986Z,20.30
2023-07-03T20:11:25.934Z,20.30
2023-07-03T20:13:53.479Z,20.30
2023-07-03T20:16:22.242Z,20.20
2023-07-03T20:18:53.768Z,20.20
2023-07-03T20:21:21.409Z,20.20
2023-07-03T20:23:49.272Z,20.30
2023-07-03T20:26:16.942Z,20.30
2023-07-03T20:28:44.117Z,20.30
2023-07-03T20:31:13.864Z,20.30
2023-07-03T20:33:41.161Z,20.30
2023-07-03T20:36:10.541Z,20.40
2023-07-03T20:38:37.634Z,20.40
2023-07-03T20:41:10.414Z,20.40
2023-07-03T20:43:38.351Z,20.30
2023-07-03T20:46:08.912Z,20.30
2023-07-03T20:48:38.574Z,20.30
2023-07-03T20:51:13.140Z,20.30
2023-07-03T20:53:53.542Z,20.20
2023-07-03T20:56:22.490Z,20.30
2023-07-03T20:58:53.241Z,20.20
2023-07-03T21:01:28.111Z,20.20
2023-07-03T21:03:59.532Z,20.20
2023-07-03T21:06:29.483Z,20.10
2023-07-03T21:08:58.085Z,20.10
2023-07-03T21:11:27.447Z,20.10
2023-07-03T21:13:57.750Z,20.10
2023-07-03T21:16:26.240Z,20.00
2023-07-03T21:18:53.989Z,20.00
2023-07-03T21:21:23.351Z,19.90
2023-07-03T21:23:51.524Z,19.90
2023-07-03T21:26:21.344Z,19.90
2023-07-03T21:28:50.039Z,19.90
2023-07-03T21:31:24.428Z,19.90
2023-07-03T21:33:52.061Z,20.00
2023-07-03T21:36:21.556Z,20.00
2023-07-03T21:38:50.926Z,20.00
2023-07-03T21:41:19.450Z,20.00
2023-07-03T21:43:50.913Z,19.80
2023-07-03T21:46:21.198Z,19.80
2023-07-03T21:48:50.101Z,19.60
2023-07-03T21:51:18.361Z,19.50
2023-07-03T21:53:49.461Z,19.40
2023-07-03T21:56:19.636Z,19.40
2023-07-03T21:58:47.819Z,19.40
2023-07-03T22:01:21.672Z,19.30
2023-07-03T22:03:48.920Z,19.20
2023-07-03T22:06:15.880Z,19.20
2023-07-03T22:08:42.860Z,19.10
2023-07-03T22:11:10.141Z,19.10
2023-07-03T22:13:37.298Z,19.10
2023-07-03T22:16:04.574Z,19.10
2023-07-03T22:18:31.899Z,19.10
2023-07-03T22:20:58.986Z,19.00
2023-07-03T22:23:32.049Z,19.00
2023-07-03T22:26:01.647Z,19.00
2023-07-03T22:28:29.921Z,19.00
2023-07-03T22:30:57.181Z,19.00
2023-07-03T22:33:24.728Z,19.00
2023-07-03T22:35:53.860Z,19.00
2023-07-03T22:38:21.471Z,19.00
2023-07-03T22:40:52.531Z,18.90
2023-07-03T22:43:20.673Z,18.90
2023-07-03T22:45:48.518Z,18.90
2023-07-03T22:48:16.024Z,18.80
2023-07-03T22:50:43.523Z,18.70
2023-07-03T22:53:11.481Z,18.70
2023-07-03T22:55:41.157Z,18.70
2023-07-03T22:58:10.225Z,18.60
2023-07-03T23:00:40.793Z,18.60
2023-07-03T23:03:08.737Z,18.60
2023-07-03T23:05:46.322Z,18.60
2023-07-03T23:08:14.909Z,18.60
2023-07-03T23:10:53.860Z,18.60
2023-07-03T23:13:22.614Z,18.60
2023-07-03T23:15:57.950Z,18.60
2023-07-03T23:18:25.144Z,18.70
2023-07-03T23:20:57.739Z,18.70
2023-07-03T23:23:27.922Z,18.80
2023-07-03T23:26:07.072Z,18.80
2023-07-03T23:28:36.837Z,18.80
2023-07-03T23:31:07.591Z,18.80
2023-07-03T23:33:35.439Z,18.80
2023-07-03T23:36:05.984Z,18.70
2023-07-03T23:38:37.052Z,18.70
2023-07-03T23:41:09.037Z,18.70
2023-07-03T23:43:36.929Z,18.70
2023-07-03T23:46:04.469Z,18.70
2023-07-03T23:48:34.931Z,18.70
2023-07-03T23:51:04.518Z,18.70
2023-07-03T23:53:35.861Z,18.70
2023-07-03T23:56:08.218Z,18.70
2023-07-03T23:58:37.770Z,18.70
